Time;durP1;ratioP1;P1;durP2;ratioP2;P2;SDS_P1;SDS_P2;PMS_P1;PMS_P2;Temp;Humidity;BMP_temperature;BMP_pressure;BME280_temperature;BME280_humidity;BME280_pressure;Samples;Min_cycle;Max_cycle;Signal;HPM_P1;HPM_P2
2022/06/17 00:00:50;;;;;;;9.57;8.43;;;;;;;16.69;71.88;102259.97;5076014;28;20017;-69
2022/06/17 00:03:16;;;;;;;12.80;8.73;;;;;;;16.78;71.15;102265.91;5075994;28;20039;-69
2022/06/17 00:05:42;;;;;;;10.52;8.55;;;;;;;16.80;71.24;102264.06;5075290;28;20028;-69
2022/06/17 00:08:14;;;;;;;13.88;8.43;;;;;;;16.83;70.55;102271.88;5075696;28;20111;-70
2022/06/17 00:10:40;;;;;;;10.95;8.57;;;;;;;16.71;72.21;102268.69;5076138;28;20028;-69
2022/06/17 00:13:05;;;;;;;11.20;8.15;;;;;;;16.68;72.96;102274.06;5074645;28;20526;-69
2022/06/17 00:15:30;;;;;;;10.68;8.57;;;;;;;16.57;72.09;102262.00;5075899;28;20021;-69
2022/06/17 00:17:58;;;;;;;12.30;8.80;;;;;;;16.53;71.66;102264.78;5075351;28;20021;-70
2022/06/17 00:20:24;;;;;;;8.82;7.93;;;;;;;16.38;72.35;102273.91;5074973;28;20029;-70
2022/06/17 00:22:50;;;;;;;10.35;8.63;;;;;;;16.39;72.43;102283.56;5075296;28;20376;-70
2022/06/17 00:25:18;;;;;;;11.80;8.70;;;;;;;16.42;72.32;102280.84;5074795;28;20029;-69
2022/06/17 00:27:43;;;;;;;15.40;9.10;;;;;;;16.40;72.28;102280.00;5075727;28;20021;-70
2022/06/17 00:30:18;;;;;;;10.93;9.30;;;;;;;16.31;72.69;102290.75;5075111;28;20524;-69
2022/06/17 00:32:43;;;;;;;10.57;8.45;;;;;;;16.21;72.89;102287.47;5075032;28;20103;-69
2022/06/17 00:35:10;;;;;;;13.43;8.68;;;;;;;16.15;74.08;102280.63;5075255;28;20468;-69
2022/06/17 00:37:36;;;;;;;10.73;8.70;;;;;;;16.13;72.94;102282.41;5075378;28;20158;-69
2022/06/17 00:40:01;;;;;;;11.93;9.57;;;;;;;16.05;73.40;102288.75;5074156;28;20052;-69
2022/06/17 00:42:27;;;;;;;9.77;8.68;;;;;;;16.08;73.37;102293.94;5075135;28;20029;-69
2022/06/17 00:45:05;;;;;;;11.90;9.63;;;;;;;16.03;73.41;102304.59;5074951;28;20033;-69
2022/06/17 00:47:44;;;;;;;12.68;9.48;;;;;;;15.99;75.04;102294.16;5074570;28;20033;-69
2022/06/17 00:50:32;;;;;;;16.02;9.80;;;;;;;16.00;74.08;102288.88;5074873;28;20082;-69
2022/06/17 00:53:06;;;;;;;13.23;9.07;;;;;;;16.00;75.41;102286.25;5074489;28;20088;-70
2022/06/17 00:55:53;;;;;;;13.02;10.43;;;;;;;16.02;75.87;102284.44;5074146;28;20237;-70
2022/06/17 00:58:22;;;;;;;18.13;9.70;;;;;;;16.01;76.65;102273.94;5075021;28;20158;-69
2022/06/17 01:00:53;;;;;;;10.73;8.48;;;;;;;16.06;77.08;102274.72;5074216;28;20025;-69
2022/06/17 01:03:41;;;;;;;11.13;8.90;;;;;;;16.07;77.19;102286.97;5074409;28;20077;-69
2022/06/17 01:06:14;;;;;;;11.88;9.20;;;;;;;16.02;76.16;102294.97;5074261;28;20380;-69
2022/06/17 01:11:39;;;;;;;11.73;9.25;;;;;;;15.85;76.88;102266.41;5074996;28;20408;-69
2022/06/17 01:14:06;;;;;;;18.40;9.93;;;;;;;15.84;76.70;102275.19;5074313;28;20435;-69
2022/06/17 01:16:37;;;;;;;12.95;9.43;;;;;;;15.86;76.52;102275.19;5073946;28;20110;-69
2022/06/17 01:19:22;;;;;;;16.38;10.02;;;;;;;15.81;76.83;102283.16;5074525;28;20031;-69
2022/06/17 01:22:00;;;;;;;11.57;9.15;;;;;;;15.76;76.43;102290.31;5073871;28;20217;-69
2022/06/17 01:24:26;;;;;;;11.30;9.25;;;;;;;15.66;77.89;102279.13;5074325;28;20028;-69
2022/06/17 01:26:52;;;;;;;13.35;9.13;;;;;;;15.60;78.06;102281.00;5074336;28;20036;-69
2022/06/17 01:29:17;;;;;;;11.55;8.63;;;;;;;15.60;78.26;102279.22;5073658;28;20025;-69
2022/06/17 01:31:49;;;;;;;13.77;9.23;;;;;;;15.57;78.50;102267.91;5074348;28;20476;-69
2022/06/17 01:34:14;;;;;;;12.32;9.65;;;;;;;15.43;78.63;102271.69;5073950;28;20051;-69
2022/06/17 01:36:42;;;;;;;11.85;9.02;;;;;;;15.40;79.60;102279.63;5073367;28;20403;-69
2022/06/17 01:39:08;;;;;;;13.35;9.60;;;;;;;15.31;80.44;102274.56;5073734;28;20025;-69
2022/06/17 01:41:34;;;;;;;13.93;9.75;;;;;;;15.30;81.18;102274.59;5074255;28;20410;-69
2022/06/17 01:44:15;;;;;;;12.95;9.30;;;;;;;15.31;80.24;102286.84;5073004;28;20024;-69
2022/06/17 01:46:43;;;;;;;12.98;9.35;;;;;;;15.22;81.69;102280.00;5074045;28;20111;-69
2022/06/17 01:49:14;;;;;;;14.57;10.40;;;;;;;15.17;82.26;102282.72;5073554;28;20365;-69
2022/06/17 01:51:44;;;;;;;13.40;10.63;;;;;;;15.11;81.93;102282.84;5072922;28;20025;-70
2022/06/17 01:54:20;;;;;;;12.88;9.95;;;;;;;15.08;82.46;102280.28;5073696;28;20416;-69
2022/06/17 01:56:48;;;;;;;13.05;10.25;;;;;;;15.06;82.68;102289.94;5073274;28;20037;-69
2022/06/17 01:59:24;;;;;;;13.90;10.20;;;;;;;15.06;82.20;102289.94;5073416;28;20353;-69
2022/06/17 02:01:53;;;;;;;12.52;9.43;;;;;;;15.04;81.97;102286.50;5073623;28;20074;-69
2022/06/17 02:04:23;;;;;;;13.07;9.82;;;;;;;15.07;81.62;102286.41;5072929;28;20116;-69
2022/06/17 02:06:57;;;;;;;13.75;10.23;;;;;;;15.09;82.39;102273.25;5073598;28;20571;-69
2022/06/17 02:09:23;;;;;;;12.52;10.15;;;;;;;15.12;81.57;102278.47;5073622;28;20107;-69
2022/06/17 02:11:48;;;;;;;12.35;9.93;;;;;;;15.16;81.24;102278.34;5072870;28;20101;-69
2022/06/17 02:14:14;;;;;;;14.80;10.68;;;;;;;15.07;81.47;102275.91;5072452;28;20431;-69
2022/06/17 02:16:44;;;;;;;12.77;9.73;;;;;;;15.10;81.10;102274.97;5073622;28;20027;-69
2022/06/17 02:19:10;;;;;;;13.85;9.55;;;;;;;15.06;81.89;102275.94;5072708;28;20040;-69
2022/06/17 02:21:42;;;;;;;12.75;9.60;;;;;;;14.99;82.23;102273.44;5073233;28;20391;-69
2022/06/17 02:24:09;;;;;;;11.40;9.35;;;;;;;14.99;81.72;102276.06;5073086;28;20025;-69
2022/06/17 02:26:38;;;;;;;12.82;9.63;;;;;;;15.06;82.14;102282.06;5072477;28;20031;-69
2022/06/17 02:29:09;;;;;;;12.30;9.40;;;;;;;15.07;82.05;102278.53;5072834;28;20593;-69
2022/06/17 02:31:36;;;;;;;15.48;10.35;;;;;;;15.08;80.94;102277.66;5073456;28;20123;-69
2022/06/17 02:34:05;;;;;;;10.73;9.50;;;;;;;15.01;81.17;102276.03;5072012;28;20384;-69
2022/06/17 02:36:42;;;;;;;13.40;9.30;;;;;;;14.97;81.19;102267.34;5073216;28;20020;-69
2022/06/17 02:39:11;;;;;;;11.32;9.77;;;;;;;15.02;81.62;102269.88;5072025;28;20020;-69
2022/06/17 02:41:38;;;;;;;14.90;10.60;;;;;;;15.03;81.68;102278.63;5073085;28;20017;-69
2022/06/17 02:44:16;;;;;;;11.10;9.80;;;;;;;15.01;81.35;102269.91;5072676;28;20107;-69
2022/06/17 02:46:43;;;;;;;13.73;10.25;;;;;;;15.03;80.68;102270.75;5072446;28;20032;-69
2022/06/17 02:49:16;;;;;;;13.88;10.52;;;;;;;14.94;80.87;102270.06;5072599;28;20028;-69
2022/06/17 02:51:42;;;;;;;13.20;10.23;;;;;;;14.95;80.53;102269.16;5072810;28;20028;-71
2022/06/17 02:54:14;;;;;;;13.98;10.45;;;;;;;14.89;80.80;102271.03;5071710;28;20032;-69
2022/06/17 02:56:44;;;;;;;13.38;10.57;;;;;;;14.81;80.44;102276.38;5072884;28;20479;-69
2022/06/17 02:59:16;;;;;;;12.65;10.77;;;;;;;14.82;80.69;102270.28;5072740;28;20109;-69
2022/06/17 03:01:43;;;;;;;14.23;10.80;;;;;;;14.72;81.19;102272.19;5072208;28;20060;-69
2022/06/17 03:04:19;;;;;;;14.57;10.40;;;;;;;14.68;81.25;102275.78;5072457;28;20048;-70
2022/06/17 03:06:46;;;;;;;13.98;11.05;;;;;;;14.70;80.15;102279.22;5072789;28;20020;-70
2022/06/17 03:09:16;;;;;;;12.40;10.85;;;;;;;14.69;81.12;102276.63;5071834;28;20111;-69
2022/06/17 03:11:45;;;;;;;13.00;11.07;;;;;;;14.66;81.19;102271.44;5072811;28;20024;-69
2022/06/17 03:14:12;;;;;;;12.90;10.73;;;;;;;14.70;81.76;102267.84;5071350;28;20380;-69
2022/06/17 03:16:39;;;;;;;11.73;10.35;;;;;;;14.65;81.01;102272.31;5072714;28;20100;-69
2022/06/17 03:19:04;;;;;;;14.55;10.48;;;;;;;14.70;81.28;102275.72;5072206;28;20385;-69
2022/06/17 03:21:30;;;;;;;14.45;10.52;;;;;;;14.70;81.78;102273.09;5072007;28;20028;-69
2022/06/17 03:24:04;;;;;;;13.85;10.40;;;;;;;14.71;80.39;102273.09;5072794;28;20044;-69
2022/06/17 03:26:36;;;;;;;15.13;10.57;;;;;;;14.66;80.77;102280.16;5075325;28;20043;-69
2022/06/17 03:29:05;;;;;;;16.42;10.60;;;;;;;14.67;80.89;102284.53;5075572;28;20028;-69
2022/06/17 03:31:36;;;;;;;13.00;11.13;;;;;;;14.71;80.33;102283.59;5076585;28;20388;-69
2022/06/17 03:34:15;;;;;;;13.75;11.07;;;;;;;14.74;79.75;102283.50;5076155;28;20036;-69
2022/06/17 03:36:45;;;;;;;18.13;10.57;;;;;;;14.81;80.95;102293.91;5076101;28;20043;-69
2022/06/17 03:39:37;;;;;;;11.52;10.20;;;;;;;14.96;79.57;102309.41;5076206;28;20017;-70
2022/06/17 03:42:08;;;;;;;12.85;11.15;;;;;;;15.01;79.86;102307.56;5072760;28;20036;-69
2022/06/17 03:44:38;;;;;;;13.63;11.13;;;;;;;15.12;79.45;102307.34;5076447;28;20029;-69
2022/06/17 03:47:22;;;;;;;14.25;11.70;;;;;;;15.17;79.00;102309.00;5076143;28;20020;-69
2022/06/17 03:49:57;;;;;;;14.27;10.63;;;;;;;15.22;78.67;102307.13;5075569;28;20070;-69
2022/06/17 03:52:34;;;;;;;15.13;11.60;;;;;;;15.31;78.37;102315.75;5075631;28;20049;-69
2022/06/17 03:54:59;;;;;;;13.40;11.15;;;;;;;15.37;79.83;102320.88;5076085;28;20043;-69
2022/06/17 03:57:29;;;;;;;17.60;11.45;;;;;;;15.45;79.19;102313.69;5075293;28;20450;-69
2022/06/17 03:59:56;;;;;;;16.17;11.25;;;;;;;15.50;78.29;102309.22;5076155;28;20034;-69
2022/06/17 04:02:22;;;;;;;15.55;11.88;;;;;;;15.58;79.23;102303.78;5075689;28;20067;-69
2022/06/17 04:04:52;;;;;;;14.27;11.32;;;;;;;15.71;78.90;102304.44;5075085;28;20021;-69
2022/06/17 04:07:17;;;;;;;18.98;11.32;;;;;;;15.75;78.87;102301.69;5075791;28;20028;-69
2022/06/17 04:09:45;;;;;;;14.00;11.95;;;;;;;15.80;78.29;102304.25;5076074;28;20358;-69
2022/06/17 04:12:10;;;;;;;14.68;11.52;;;;;;;15.80;78.21;102306.88;5074824;28;20025;-69
2022/06/17 04:14:55;;;;;;;15.17;11.23;;;;;;;15.83;77.69;102304.19;5075839;28;20032;-69
2022/06/17 04:17:33;;;;;;;13.32;10.40;;;;;;;15.83;78.11;102305.03;5074670;28;20311;-69
2022/06/17 04:20:13;;;;;;;21.95;11.02;;;;;;;15.87;78.11;102304.06;5075916;28;20074;-69
2022/06/17 04:22:40;;;;;;;13.20;11.80;;;;;;;15.91;78.21;102303.09;5075677;28;20526;-69
2022/06/17 04:25:11;;;;;;;14.20;11.25;;;;;;;15.91;78.50;102297.81;5074545;28;20024;-69
2022/06/17 04:30:26;;;;;;;16.25;12.18;;;;;;;16.02;78.25;102291.44;5075451;28;20119;-70
2022/06/17 04:32:58;;;;;;;15.73;11.73;;;;;;;16.08;78.44;102289.53;5074688;28;20059;-69
2022/06/17 04:35:23;;;;;;;14.25;11.02;;;;;;;16.16;78.62;102292.00;5075012;28;20392;-69
2022/06/17 04:37:48;;;;;;;16.60;12.23;;;;;;;16.20;78.92;102298.06;5074364;28;20028;-69
2022/06/17 04:40:26;;;;;;;14.18;12.23;;;;;;;16.25;78.24;102286.53;5074157;28;20028;-69
2022/06/17 04:42:53;;;;;;;16.05;12.43;;;;;;;16.31;78.68;102285.50;5075474;28;20102;-70
2022/06/17 04:45:25;;;;;;;16.05;12.65;;;;;;;16.33;78.05;102279.31;5074770;28;20024;-69
2022/06/17 04:47:50;;;;;;;15.07;13.07;;;;;;;16.33;77.21;102281.94;5075146;28;20526;-69
2022/06/17 04:50:18;;;;;;;17.17;13.00;;;;;;;16.29;77.22;102271.53;5074889;28;20056;-69
2022/06/17 04:52:48;;;;;;;15.77;13.32;;;;;;;16.32;76.45;102255.66;5073972;28;20048;-69
2022/06/17 04:55:28;;;;;;;14.20;11.82;;;;;;;16.36;76.75;102263.44;5074908;28;20028;-70
2022/06/17 04:57:54;;;;;;;15.30;11.63;;;;;;;16.46;77.21;102265.84;5075314;28;20078;-69
2022/06/17 05:00:25;;;;;;;16.10;11.95;;;;;;;16.61;76.59;102262.78;5074060;28;20103;-69
2022/06/17 05:02:51;;;;;;;21.55;12.55;;;;;;;16.80;74.55;102261.44;5074901;28;20028;-69
2022/06/17 05:05:24;;;;;;;15.57;13.20;;;;;;;16.93;72.61;102256.69;5074386;28;20027;-69
2022/06/17 05:07:53;;;;;;;16.52;12.30;;;;;;;17.04;71.36;102261.69;5074144;28;20457;-69
2022/06/17 05:10:24;;;;;;;14.25;11.00;;;;;;;17.12;73.49;102264.09;5074553;28;20039;-69
2022/06/17 05:13:19;;;;;;;12.50;10.38;;;;;;;17.28;73.34;102263.63;5074769;28;20025;-69
2022/06/17 05:15:45;;;;;;;17.73;10.57;;;;;;;17.36;72.31;102262.53;5065586;28;20396;-69
2022/06/17 05:18:11;;;;;;;14.23;11.32;;;;;;;17.38;71.70;102274.75;5074437;28;20028;-69
2022/06/17 05:20:36;;;;;;;14.13;10.20;;;;;;;17.39;71.86;102273.84;5074113;28;20025;-69
2022/06/17 05:23:04;;;;;;;14.90;9.35;;;;;;;17.42;72.57;102271.13;5074651;28;20403;-70
2022/06/17 05:25:33;;;;;;;12.35;9.23;;;;;;;17.40;72.86;102267.69;5074211;28;20036;-70
2022/06/17 05:27:58;;;;;;;16.13;9.23;;;;;;;17.43;73.25;102278.13;5073658;28;20047;-69
2022/06/17 05:30:31;;;;;;;11.27;9.48;;;;;;;17.45;72.33;102268.41;5073915;28;20556;-69
2022/06/17 05:32:56;;;;;;;14.83;11.77;;;;;;;17.50;68.18;102263.88;5074427;28;20111;-69
2022/06/17 05:35:22;;;;;;;15.43;10.20;;;;;;;17.61;72.99;102252.97;5073357;28;20355;-69
2022/06/17 05:37:49;;;;;;;16.65;10.00;;;;;;;17.73;72.19;102254.38;5074296;28;20047;-69
2022/06/17 05:40:15;;;;;;;17.27;9.57;;;;;;;17.88;72.39;102256.56;5074267;28;20016;-69
2022/06/17 05:42:43;;;;;;;18.63;10.60;;;;;;;18.06;69.68;102255.13;5073142;28;20039;-69
2022/06/17 05:45:15;;;;;;;16.33;10.55;;;;;;;18.18;68.68;102256.47;5074194;28;20032;-70
2022/06/17 05:47:41;;;;;;;17.00;9.98;;;;;;;18.19;67.69;102256.44;5073778;28;20114;-69
2022/06/17 05:50:08;;;;;;;18.05;10.05;;;;;;;18.13;69.33;102261.94;5073202;28;20044;-70
2022/06/17 05:52:33;;;;;;;15.52;10.35;;;;;;;18.04;67.71;102251.66;5073450;28;20049;-70
2022/06/17 05:55:00;;;;;;;11.93;9.32;;;;;;;17.96;69.92;102232.59;5073737;28;20036;-69
2022/06/17 05:57:26;;;;;;;13.40;9.55;;;;;;;17.96;68.25;102238.72;5072591;28;20028;-70
2022/06/17 05:59:51;;;;;;;14.68;9.05;;;;;;;18.01;69.89;102236.78;5074112;28;20464;-69
2022/06/17 06:02:16;;;;;;;16.02;8.90;;;;;;;18.11;70.63;102225.94;5073999;28;20032;-69
2022/06/17 06:04:42;;;;;;;12.98;9.63;;;;;;;18.17;67.80;102239.78;5072817;28;20532;-69
2022/06/17 06:07:07;;;;;;;11.65;9.07;;;;;;;18.19;68.65;102235.34;5073684;28;20104;-69
2022/06/17 06:09:33;;;;;;;11.60;8.90;;;;;;;18.26;69.04;102233.34;5073260;28;20082;-69
2022/06/17 06:11:58;;;;;;;12.77;7.90;;;;;;;18.28;71.82;102218.34;5072577;28;20028;-69
2022/06/17 06:14:23;;;;;;;12.70;9.15;;;;;;;18.42;68.59;102229.28;5073486;28;20491;-69
2022/06/17 06:16:48;;;;;;;15.82;8.65;;;;;;;18.43;65.64;102225.72;5072672;28;20032;-69
2022/06/17 06:19:14;;;;;;;10.27;7.38;;;;;;;18.52;69.16;102226.31;5073459;28;20021;-69
2022/06/17 06:21:39;;;;;;;13.07;8.43;;;;;;;18.62;64.83;102222.44;5073000;28;20029;-69
2022/06/17 06:24:04;;;;;;;9.38;6.97;;;;;;;18.68;68.37;102222.22;5072432;28;20102;-69
2022/06/17 06:26:30;;;;;;;8.48;6.93;;;;;;;18.74;69.81;102213.22;5073008;28;20027;-70
2022/06/17 06:28:56;;;;;;;13.70;6.88;;;;;;;18.84;70.55;102223.44;5073452;28;20028;-69
2022/06/17 06:31:32;;;;;;;8.20;6.70;;;;;;;18.94;67.77;102230.09;5072582;28;20055;-70
2022/06/17 06:33:57;;;;;;;9.75;6.60;;;;;;;18.93;70.61;102241.59;5073107;28;20541;-70
2022/06/17 06:36:22;;;;;;;9.55;6.63;;;;;;;18.95;66.50;102234.47;5073248;28;20032;-69
2022/06/17 06:38:48;;;;;;;9.68;6.30;;;;;;;18.98;63.97;102241.44;5072138;28;20091;-70
2022/06/17 06:41:14;;;;;;;11.60;6.40;;;;;;;19.08;67.45;102247.25;5072964;28;20016;-69
2022/06/17 06:43:40;;;;;;;8.00;6.45;;;;;;;19.12;65.92;102254.13;5072889;28;20028;-70
2022/06/17 06:46:10;;;;;;;12.10;6.72;;;;;;;19.08;66.08;102253.38;5072328;28;20029;-70
2022/06/17 06:48:36;;;;;;;12.18;7.38;;;;;;;19.05;65.02;102247.34;5072751;28;20021;-70
2022/06/17 06:51:01;;;;;;;9.23;6.30;;;;;;;18.97;65.73;102245.00;5072905;28;20096;-69
2022/06/17 06:53:26;;;;;;;8.15;6.63;;;;;;;18.86;64.72;102237.44;5071788;28;20040;-70
2022/06/17 06:55:52;;;;;;;12.25;7.55;;;;;;;18.95;64.31;102239.75;5072529;28;20029;-70
2022/06/17 06:58:21;;;;;;;11.40;7.55;;;;;;;19.04;63.08;102241.19;5073120;28;20027;-70
2022/06/17 07:00:49;;;;;;;10.20;6.63;;;;;;;19.16;64.53;102253.09;5071542;28;20029;-69
2022/06/17 07:03:17;;;;;;;9.05;7.28;;;;;;;19.29;63.99;102258.78;5073136;28;20025;-70
2022/06/17 07:05:48;;;;;;;10.30;6.40;;;;;;;19.42;63.88;102263.56;5072883;28;20040;-70
2022/06/17 07:08:16;;;;;;;9.82;6.60;;;;;;;19.64;62.03;102262.75;5071891;28;20021;-70
2022/06/17 07:10:42;;;;;;;13.18;7.93;;;;;;;19.77;60.42;102266.66;5072699;28;20052;-70
2022/06/17 07:13:08;;;;;;;9.15;6.72;;;;;;;19.88;60.04;102259.16;5072171;28;20115;-70
2022/06/17 07:15:35;;;;;;;10.20;6.82;;;;;;;19.90;61.39;102253.78;5072863;28;20532;-69
2022/06/17 07:18:07;;;;;;;10.82;6.32;;;;;;;19.97;61.17;102244.69;5072491;28;20056;-70
2022/06/17 07:20:42;;;;;;;10.27;6.27;;;;;;;19.99;61.97;102248.13;5071829;28;20115;-69
2022/06/17 07:23:12;;;;;;;9.55;6.25;;;;;;;19.96;62.89;102250.91;5072565;28;20033;-70
2022/06/17 07:25:38;;;;;;;10.57;5.90;;;;;;;20.04;63.81;102253.22;5072811;28;20098;-69
2022/06/17 07:28:05;;;;;;;10.23;5.63;;;;;;;20.05;62.39;102247.03;5071541;28;20063;-70
2022/06/17 07:30:32;;;;;;;9.07;6.50;;;;;;;20.09;61.23;102251.28;5072522;28;20025;-70
2022/06/17 07:32:58;;;;;;;11.20;6.43;;;;;;;20.21;59.10;102241.94;5072368;28;20380;-70
2022/06/17 07:35:23;;;;;;;8.73;5.75;;;;;;;20.26;57.37;102245.28;5071739;28;20036;-70
2022/06/17 07:40:33;;;;;;;7.15;5.35;;;;;;;20.29;59.81;102240.69;5072446;28;20459;-70
2022/06/17 07:42:59;;;;;;;9.40;5.18;;;;;;;20.30;60.34;102238.91;5071671;28;20024;-70
2022/06/17 07:45:26;;;;;;;9.13;5.15;;;;;;;20.30;59.29;102237.13;5072285;28;20118;-70
2022/06/17 07:47:53;;;;;;;7.45;5.85;;;;;;;20.36;57.22;102251.91;5072148;28;20050;-70
2022/06/17 07:50:23;;;;;;;10.07;5.90;;;;;;;20.45;57.32;102246.22;5071533;28;20487;-70
2022/06/17 07:52:48;;;;;;;6.93;5.18;;;;;;;20.56;58.10;102249.28;5072016;28;20037;-70
2022/06/17 07:55:14;;;;;;;7.65;5.00;;;;;;;20.68;58.64;102241.75;5072040;28;20024;-70
2022/06/17 07:57:42;;;;;;;8.32;5.60;;;;;;;20.79;56.39;102242.97;5072072;28;20036;-70
2022/06/17 08:00:19;;;;;;;6.75;5.82;;;;;;;20.89;55.33;102242.56;5072238;28;20033;-70
2022/06/17 08:02:44;;;;;;;6.68;5.20;;;;;;;21.00;56.13;102241.19;5071397;28;20025;-70
2022/06/17 08:05:10;;;;;;;7.95;5.25;;;;;;;21.12;55.28;102244.19;5072618;28;20465;-70
2022/06/17 08:07:35;;;;;;;7.10;5.03;;;;;;;21.30;56.96;102247.81;5072005;28;20024;-70
2022/06/17 08:10:00;;;;;;;6.35;4.60;;;;;;;21.40;58.03;102249.13;5071459;28;20024;-69
2022/06/17 08:12:26;;;;;;;6.10;4.55;;;;;;;21.49;54.03;102249.56;5072940;28;20025;-70
2022/06/17 08:14:54;;;;;;;7.30;4.72;;;;;;;21.46;54.55;102248.84;5075261;28;20032;-70
2022/06/17 08:17:20;;;;;;;5.03;4.22;;;;;;;21.51;54.93;102254.78;5075133;28;20031;-70
2022/06/17 08:19:46;;;;;;;6.72;3.85;;;;;;;21.59;53.27;102238.50;5075526;28;20040;-70
2022/06/17 08:22:11;;;;;;;6.43;4.30;;;;;;;21.78;54.84;102262.34;5075725;28;20024;-70
2022/06/17 08:24:37;;;;;;;6.90;4.10;;;;;;;21.96;51.55;102258.81;5074657;28;20491;-70
2022/06/17 08:27:03;;;;;;;5.57;3.67;;;;;;;22.13;53.78;102258.84;5075530;28;20457;-70
2022/06/17 08:29:29;;;;;;;7.78;4.28;;;;;;;22.25;52.48;102257.41;5075418;28;20028;-69
2022/06/17 08:31:55;;;;;;;6.95;3.88;;;;;;;22.42;51.89;102253.91;5074630;28;20021;-70
2022/06/17 08:34:21;;;;;;;6.55;3.70;;;;;;;22.52;53.92;102243.66;5075341;28;20039;-70
2022/06/17 08:36:47;;;;;;;9.07;4.30;;;;;;;22.68;48.99;102233.94;5075240;28;20028;-70
2022/06/17 08:39:14;;;;;;;6.88;3.38;;;;;;;22.80;50.23;102233.31;5074666;28;20100;-70
2022/06/17 08:41:53;;;;;;;6.20;3.47;;;;;;;23.00;50.84;102216.31;5075055;28;20104;-70
2022/06/17 08:44:28;;;;;;;5.90;3.17;;;;;;;23.17;52.14;102222.50;5075440;28;20096;-70
2022/06/17 08:47:12;;;;;;;5.47;3.50;;;;;;;23.21;49.55;102222.25;5074751;28;20469;-70
2022/06/17 08:49:43;;;;;;;5.90;3.30;;;;;;;23.09;49.71;102223.81;5074830;28;20029;-70
2022/06/17 08:52:24;;;;;;;12.38;3.85;;;;;;;23.01;48.11;102227.81;5074112;28;20137;-70
2022/06/17 08:54:52;;;;;;;6.10;4.07;;;;;;;23.05;51.90;102232.91;5074861;28;20028;-70
2022/06/17 08:57:32;;;;;;;9.13;3.92;;;;;;;23.24;48.92;102235.38;5075216;28;20103;-70
2022/06/17 09:00:09;;;;;;;6.53;3.80;;;;;;;23.34;48.83;102233.94;5074278;28;20062;-70
2022/06/17 09:02:47;;;;;;;6.30;3.75;;;;;;;23.54;50.10;102235.50;5074743;28;20033;-70
2022/06/17 09:05:30;;;;;;;7.20;3.63;;;;;;;23.74;48.61;102241.50;5075062;28;20023;-78
2022/06/17 09:08:14;;;;;;;;;;;;;;;23.80;48.65;102243.84;5074186;28;20052;-78
2022/06/17 09:10:39;;;;;;;;;;;;;;;23.87;46.40;102237.22;5074999;28;20360;-78
2022/06/17 09:13:35;;;;;;;9.90;4.22;;;;;;;23.92;45.39;102237.81;5074086;28;19951;-79
2022/06/17 09:16:25;;;;;;;7.07;3.90;;;;;;;24.10;45.67;102229.69;5074794;28;20020;-70
2022/06/17 09:18:59;;;;;;;7.53;3.85;;;;;;;24.24;47.55;102224.41;5074349;28;20036;-70
2022/06/17 09:21:41;;;;;;;9.35;3.75;;;;;;;24.35;47.48;102227.28;5073772;28;20016;-70
2022/06/17 09:24:12;;;;;;;5.95;3.63;;;;;;;24.39;45.46;102225.28;5074316;28;20491;-70
2022/06/17 09:26:45;;;;;;;9.75;3.90;;;;;;;24.48;45.63;102230.97;5074270;28;20082;-70
2022/06/17 09:29:29;;;;;;;9.50;4.90;;;;;;;24.55;44.55;102239.44;5074400;28;20097;-70
2022/06/17 09:32:22;;;;;;;14.60;6.65;;;;;;;24.61;45.30;102238.22;5074073;28;20023;-70
2022/06/17 09:35:04;;;;;;;8.35;4.00;;;;;;;24.69;43.66;102236.81;5073097;28;20460;-70
2022/06/17 09:37:41;;;;;;;5.47;3.78;;;;;;;24.66;41.61;102229.00;5074331;28;20025;-70
2022/06/17 09:40:17;;;;;;;8.30;3.72;;;;;;;24.68;44.59;102229.75;5074165;28;20043;-70
2022/06/17 09:42:55;;;;;;;8.10;3.72;;;;;;;24.77;41.87;102223.84;5073326;28;20016;-70
2022/06/17 09:45:43;;;;;;;7.70;3.78;;;;;;;24.86;43.69;102225.09;5074330;28;20082;-70
2022/06/17 09:48:16;;;;;;;4.32;3.53;;;;;;;24.95;41.46;102232.56;5073079;28;20051;-70
2022/06/17 09:50:48;;;;;;;6.25;3.55;;;;;;;25.03;42.80;102225.88;5073523;28;20103;-70
2022/06/17 09:53:42;;;;;;;6.72;3.47;;;;;;;25.18;43.18;102228.47;5073861;28;20435;-70
2022/06/17 09:56:37;;;;;;;10.57;5.00;;;;;;;25.32;45.93;102235.59;5073047;28;20050;-70
2022/06/17 09:59:15;;;;;;;6.43;3.08;;;;;;;25.42;42.11;102228.69;5072874;28;20119;-70
2022/06/17 10:01:41;;;;;;;9.57;3.47;;;;;;;25.47;42.53;102223.06;5073725;28;20052;-70
2022/06/17 10:04:11;;;;;;;7.25;3.17;;;;;;;25.63;43.24;102214.91;5072953;28;20049;-70
2022/06/17 10:07:04;;;;;;;11.05;5.00;;;;;;;25.78;41.48;102213.91;5073364;28;20056;-70
2022/06/17 10:10:07;;;;;;;17.95;6.95;;;;;;;25.82;40.70;102215.44;5072633;28;20479;-70
2022/06/17 10:12:57;;;;;;;18.38;7.82;;;;;;;25.88;39.56;102217.72;5072988;28;20490;-70
2022/06/17 10:15:22;;;;;;;31.35;12.43;;;;;;;26.00;38.39;102200.00;5073393;28;20048;-70
2022/06/17 10:20:49;;;;;;;;;;;;;;;26.17;39.53;102196.19;5073816;28;20033;-70
2022/06/17 10:23:35;;;;;;;9.10;3.17;;;;;;;26.30;38.18;102191.72;5072607;28;19923;-70
2022/06/17 10:26:09;;;;;;;4.05;2.75;;;;;;;26.29;35.83;102190.00;5073150;28;20020;-70
2022/06/17 10:28:58;;;;;;;23.75;10.77;;;;;;;26.44;37.74;102181.88;5073148;28;20028;-71
2022/06/17 10:31:43;;;;;;;9.43;3.60;;;;;;;26.57;38.60;102178.28;5072820;28;20016;-71
2022/06/17 10:34:23;;;;;;;5.15;2.38;;;;;;;26.76;37.68;102183.19;5073246;28;20429;-70
2022/06/17 10:36:52;;;;;;;3.63;2.28;;;;;;;26.77;35.26;102179.53;5072381;28;20086;-70
2022/06/17 10:39:19;;;;;;;2.88;2.47;;;;;;;26.92;35.46;102185.63;5072387;28;20021;-70
2022/06/17 10:41:45;;;;;;;3.22;2.13;;;;;;;26.99;39.66;102197.59;5072782;28;20032;-70
2022/06/17 10:44:16;;;;;;;6.75;2.42;;;;;;;27.17;38.81;102184.72;5072583;28;20028;-70
2022/06/17 10:46:48;;;;;;;3.60;2.53;;;;;;;27.40;38.42;102187.53;5073456;28;20069;-70
2022/06/17 10:49:34;;;;;;;2.85;2.13;;;;;;;27.39;37.90;102186.69;5073159;28;20484;-70
2022/06/17 10:52:03;;;;;;;6.43;2.67;;;;;;;27.36;34.12;102175.34;5071959;28;20400;-71
2022/06/17 10:54:36;;;;;;;4.75;2.45;;;;;;;27.48;37.70;102178.00;5072834;28;20048;-70
2022/06/17 10:57:08;;;;;;;6.60;2.65;;;;;;;27.72;36.68;102177.97;5072841;28;20441;-70
2022/06/17 10:59:39;;;;;;;7.50;2.70;;;;;;;27.86;36.21;102174.31;5071620;28;20048;-70
2022/06/17 11:02:18;;;;;;;5.05;2.50;;;;;;;27.91;36.85;102177.47;5073097;28;20020;-70
2022/06/17 11:04:49;;;;;;;3.17;2.05;;;;;;;28.03;36.40;102170.34;5072780;28;20478;-71
2022/06/17 11:07:20;;;;;;;3.53;2.55;;;;;;;28.16;32.31;102165.72;5072272;28;20385;-70
2022/06/17 11:09:55;;;;;;;4.13;2.50;;;;;;;28.20;36.54;102161.84;5072430;28;20070;-70
2022/06/17 11:12:30;;;;;;;2.90;2.40;;;;;;;28.24;35.82;102163.28;5072187;28;20055;-71
2022/06/17 11:15:03;;;;;;;2.75;2.30;;;;;;;28.40;36.30;102148.72;5072567;28;20086;-70
2022/06/17 11:17:46;;;;;;;2.65;2.35;;;;;;;28.58;36.10;102144.59;5072878;28;20025;-70
2022/06/17 11:20:28;;;;;;;3.60;2.45;;;;;;;28.88;36.16;102143.13;5071907;28;20070;-70
2022/06/17 11:23:09;;;;;;;6.03;2.40;;;;;;;29.12;35.58;102135.78;5072534;28;20035;-71
2022/06/17 11:25:38;;;;;;;10.98;4.03;;;;;;;29.10;32.76;102139.56;5072398;28;20036;-71
2022/06/17 11:28:25;;;;;;;6.68;3.97;;;;;;;29.27;34.18;102132.81;5071778;28;20025;-71
2022/06/17 11:30:59;;;;;;;8.05;4.65;;;;;;;29.42;33.89;102128.00;5072211;28;20468;-70
2022/06/17 11:33:26;;;;;;;8.02;4.88;;;;;;;29.50;33.65;102129.06;5071805;28;20070;-71
2022/06/17 11:36:09;;;;;;;26.20;12.85;;;;;;;29.56;34.09;102125.00;5072390;28;20115;-70
2022/06/17 11:38:34;;;;;;;22.35;12.20;;;;;;;29.74;33.19;102117.25;5072282;28;20021;-71
2022/06/17 11:41:01;;;;;;;5.82;2.80;;;;;;;29.76;32.39;102116.16;5071610;28;20388;-71
2022/06/17 11:43:33;;;;;;;5.28;3.10;;;;;;;29.94;30.93;102112.88;5072591;28;20044;-71
2022/06/17 11:46:10;;;;;;;6.07;2.00;;;;;;;30.22;31.14;102116.75;5072541;28;20048;-71
2022/06/17 11:48:44;;;;;;;3.33;2.25;;;;;;;30.90;32.46;102117.00;5075288;28;20032;-71